sensor_id;sensor_type;location;lat;lon;timestamp;P1;durP1;ratioP1;P2;durP2;ratioP2
27889;SDS011;15238;49.082;9.102;2023-02-03T00:00:23;3.55;;;1.48;;
27889;SDS011;15238;49.082;9.102;2023-02-03T00:02:23;4.68;;;1.30;;
27889;SDS011;15238;49.082;9.102;2023-02-03T00:04:24;5.35;;;1.80;;
27889;SDS011;15238;49.082;9.102;2023-02-03T00:06:24;6.93;;;1.48;;
27889;SDS011;15238;49.082;9.102;2023-02-03T00:08:25;4.18;;;1.40;;
27889;SDS011;15238;49.082;9.102;2023-02-03T00:10:26;6.07;;;2.08;;
27889;SDS011;15238;49.082;9.102;2023-02-03T00:12:27;4.45;;;1.63;;
27889;SDS011;15238;49.082;9.102;2023-02-03T00:14:28;4.07;;;1.52;;
27889;SDS011;15238;49.082;9.102;2023-02-03T00:16:28;4.40;;;1.60;;
27889;SDS011;15238;49.082;9.102;2023-02-03T00:18:29;3.85;;;1.63;;
27889;SDS011;15238;49.082;9.102;2023-02-03T00:20:29;6.88;;;1.58;;
27889;SDS011;15238;49.082;9.102;2023-02-03T00:22:30;9.02;;;1.50;;
27889;SDS011;15238;49.082;9.102;2023-02-03T00:24:30;4.70;;;2.20;;
27889;SDS011;15238;49.082;9.102;2023-02-03T00:26:31;5.95;;;1.55;;
27889;SDS011;15238;49.082;9.102;2023-02-03T00:28:31;4.55;;;1.33;;
27889;SDS011;15238;49.082;9.102;2023-02-03T00:30:35;6.57;;;1.55;;
27889;SDS011;15238;49.082;9.102;2023-02-03T00:32:36;6.13;;;1.67;;
27889;SDS011;15238;49.082;9.102;2023-02-03T00:34:37;7.38;;;1.70;;
27889;SDS011;15238;49.082;9.102;2023-02-03T00:36:38;3.22;;;1.50;;
27889;SDS011;15238;49.082;9.102;2023-02-03T00:38:38;3.10;;;1.35;;
27889;SDS011;15238;49.082;9.102;2023-02-03T00:40:39;5.10;;;1.50;;
27889;SDS011;15238;49.082;9.102;2023-02-03T00:42:39;5.25;;;1.63;;
27889;SDS011;15238;49.082;9.102;2023-02-03T00:44:40;5.53;;;1.77;;
27889;SDS011;15238;49.082;9.102;2023-02-03T00:46:40;6.22;;;1.90;;
27889;SDS011;15238;49.082;9.102;2023-02-03T00:48:41;5.57;;;1.65;;
27889;SDS011;15238;49.082;9.102;2023-02-03T00:50:41;2.80;;;1.50;;
27889;SDS011;15238;49.082;9.102;2023-02-03T00:52:44;5.78;;;1.80;;
27889;SDS011;15238;49.082;9.102;2023-02-03T00:54:45;7.43;;;1.60;;
27889;SDS011;15238;49.082;9.102;2023-02-03T00:56:45;6.25;;;1.58;;
27889;SDS011;15238;49.082;9.102;2023-02-03T00:58:46;6.57;;;2.10;;
27889;SDS011;15238;49.082;9.102;2023-02-03T01:00:46;5.65;;;1.60;;
27889;SDS011;15238;49.082;9.102;2023-02-03T01:02:47;5.97;;;1.73;;
27889;SDS011;15238;49.082;9.102;2023-02-03T01:04:47;5.80;;;1.58;;
27889;SDS011;15238;49.082;9.102;2023-02-03T01:06:48;3.35;;;1.70;;
27889;SDS011;15238;49.082;9.102;2023-02-03T01:08:49;5.55;;;1.77;;
27889;SDS011;15238;49.082;9.102;2023-02-03T01:10:49;8.77;;;2.33;;
27889;SDS011;15238;49.082;9.102;2023-02-03T01:12:50;4.95;;;1.75;;
27889;SDS011;15238;49.082;9.102;2023-02-03T01:14:50;6.95;;;2.22;;
27889;SDS011;15238;49.082;9.102;2023-02-03T01:16:51;5.88;;;1.73;;
27889;SDS011;15238;49.082;9.102;2023-02-03T01:18:51;3.70;;;1.45;;
27889;SDS011;15238;49.082;9.102;2023-02-03T01:20:53;7.80;;;2.72;;
27889;SDS011;15238;49.082;9.102;2023-02-03T01:22:54;4.85;;;2.17;;
27889;SDS011;15238;49.082;9.102;2023-02-03T01:24:54;5.68;;;1.58;;
27889;SDS011;15238;49.082;9.102;2023-02-03T01:26:55;7.07;;;1.60;;
27889;SDS011;15238;49.082;9.102;2023-02-03T01:28:57;9.98;;;2.17;;
27889;SDS011;15238;49.082;9.102;2023-02-03T01:31:09;6.15;;;2.25;;
27889;SDS011;15238;49.082;9.102;2023-02-03T01:33:13;4.35;;;1.77;;
27889;SDS011;15238;49.082;9.102;2023-02-03T01:35:13;7.80;;;2.20;;
27889;SDS011;15238;49.082;9.102;2023-02-03T01:37:14;6.18;;;1.73;;
27889;SDS011;15238;49.082;9.102;2023-02-03T01:39:17;4.93;;;1.73;;
27889;SDS011;15238;49.082;9.102;2023-02-03T01:41:18;5.20;;;1.70;;
27889;SDS011;15238;49.082;9.102;2023-02-03T01:43:27;5.55;;;1.85;;
27889;SDS011;15238;49.082;9.102;2023-02-03T01:45:32;4.75;;;2.05;;
27889;SDS011;15238;49.082;9.102;2023-02-03T01:47:33;4.63;;;1.95;;
27889;SDS011;15238;49.082;9.102;2023-02-03T01:49:40;5.28;;;2.13;;
27889;SDS011;15238;49.082;9.102;2023-02-03T01:51:44;8.43;;;1.67;;
27889;SDS011;15238;49.082;9.102;2023-02-03T01:53:45;5.57;;;2.00;;
27889;SDS011;15238;49.082;9.102;2023-02-03T01:55:47;5.18;;;1.90;;
27889;SDS011;15238;49.082;9.102;2023-02-03T01:57:53;6.60;;;2.30;;
27889;SDS011;15238;49.082;9.102;2023-02-03T01:59:57;4.50;;;2.03;;
27889;SDS011;15238;49.082;9.102;2023-02-03T02:01:59;3.92;;;2.10;;
27889;SDS011;15238;49.082;9.102;2023-02-03T02:04:02;5.43;;;1.90;;
27889;SDS011;15238;49.082;9.102;2023-02-03T02:06:04;2.63;;;1.70;;
27889;SDS011;15238;49.082;9.102;2023-02-03T02:08:07;4.28;;;2.15;;
27889;SDS011;15238;49.082;9.102;2023-02-03T02:10:08;7.10;;;2.75;;
27889;SDS011;15238;49.082;9.102;2023-02-03T02:12:10;3.63;;;1.83;;
27889;SDS011;15238;49.082;9.102;2023-02-03T02:14:10;3.83;;;2.00;;
27889;SDS011;15238;49.082;9.102;2023-02-03T02:16:14;7.85;;;2.72;;
27889;SDS011;15238;49.082;9.102;2023-02-03T02:23:55;6.68;;;2.30;;
27889;SDS011;15238;49.082;9.102;2023-02-03T02:26:31;8.27;;;2.70;;
27889;SDS011;15238;49.082;9.102;2023-02-03T02:28:57;13.95;;;4.43;;
27889;SDS011;15238;49.082;9.102;2023-02-03T02:33:40;6.40;;;3.45;;
27889;SDS011;15238;49.082;9.102;2023-02-03T02:35:59;6.97;;;3.30;;
27889;SDS011;15238;49.082;9.102;2023-02-03T02:38:24;4.93;;;2.30;;
27889;SDS011;15238;49.082;9.102;2023-02-03T02:40:55;3.83;;;1.83;;
27889;SDS011;15238;49.082;9.102;2023-02-03T02:45:33;3.53;;;1.70;;
27889;SDS011;15238;49.082;9.102;2023-02-03T02:47:43;2.70;;;1.60;;
27889;SDS011;15238;49.082;9.102;2023-02-03T02:49:50;5.85;;;2.58;;
27889;SDS011;15238;49.082;9.102;2023-02-03T02:51:58;2.53;;;1.20;;
27889;SDS011;15238;49.082;9.102;2023-02-03T02:54:02;4.22;;;1.48;;
27889;SDS011;15238;49.082;9.102;2023-02-03T02:56:06;5.50;;;2.00;;
27889;SDS011;15238;49.082;9.102;2023-02-03T02:58:10;4.85;;;1.92;;
27889;SDS011;15238;49.082;9.102;2023-02-03T03:00:13;5.32;;;2.03;;
27889;SDS011;15238;49.082;9.102;2023-02-03T03:02:14;3.55;;;2.03;;
27889;SDS011;15238;49.082;9.102;2023-02-03T03:04:17;4.45;;;1.70;;
27889;SDS011;15238;49.082;9.102;2023-02-03T03:06:29;3.10;;;1.80;;
27889;SDS011;15238;49.082;9.102;2023-02-03T03:09:07;3.33;;;1.85;;
27889;SDS011;15238;49.082;9.102;2023-02-03T03:11:21;3.33;;;2.10;;
27889;SDS011;15238;49.082;9.102;2023-02-03T03:13:26;3.17;;;1.60;;
27889;SDS011;15238;49.082;9.102;2023-02-03T03:15:33;5.03;;;1.52;;
27889;SDS011;15238;49.082;9.102;2023-02-03T03:17:39;4.40;;;2.05;;
27889;SDS011;15238;49.082;9.102;2023-02-03T03:19:45;8.02;;;2.00;;
27889;SDS011;15238;49.082;9.102;2023-02-03T03:21:52;3.30;;;1.60;;
27889;SDS011;15238;49.082;9.102;2023-02-03T03:23:55;2.95;;;1.40;;
27889;SDS011;15238;49.082;9.102;2023-02-03T03:26:02;5.78;;;1.88;;
27889;SDS011;15238;49.082;9.102;2023-02-03T03:28:10;4.80;;;1.92;;
27889;SDS011;15238;49.082;9.102;2023-02-03T03:30:17;2.35;;;1.33;;
27889;SDS011;15238;49.082;9.102;2023-02-03T03:32:22;3.15;;;1.50;;
27889;SDS011;15238;49.082;9.102;2023-02-03T03:34:23;3.63;;;1.60;;
27889;SDS011;15238;49.082;9.102;2023-02-03T03:36:26;3.30;;;1.80;;
27889;SDS011;15238;49.082;9.102;2023-02-03T03:38:38;2.50;;;1.25;;
27889;SDS011;15238;49.082;9.102;2023-02-03T03:40:42;2.88;;;2.10;;
27889;SDS011;15238;49.082;9.102;2023-02-03T03:42:51;3.90;;;1.50;;
27889;SDS011;15238;49.082;9.102;2023-02-03T03:44:56;5.18;;;2.05;;
27889;SDS011;15238;49.082;9.102;2023-02-03T03:47:08;3.75;;;2.08;;
27889;SDS011;15238;49.082;9.102;2023-02-03T03:49:25;2.47;;;1.60;;
27889;SDS011;15238;49.082;9.102;2023-02-03T03:54:00;2.80;;;1.65;;
27889;SDS011;15238;49.082;9.102;2023-02-03T03:56:05;5.63;;;1.33;;
27889;SDS011;15238;49.082;9.102;2023-02-03T03:58:10;4.15;;;1.35;;
27889;SDS011;15238;49.082;9.102;2023-02-03T04:00:16;3.97;;;2.00;;
27889;SDS011;15238;49.082;9.102;2023-02-03T04:02:19;4.45;;;2.22;;
27889;SDS011;15238;49.082;9.102;2023-02-03T04:04:22;5.30;;;2.10;;
27889;SDS011;15238;49.082;9.102;2023-02-03T04:06:24;7.88;;;2.90;;
27889;SDS011;15238;49.082;9.102;2023-02-03T04:08:25;6.15;;;2.22;;
27889;SDS011;15238;49.082;9.102;2023-02-03T04:10:28;7.65;;;3.05;;
27889;SDS011;15238;49.082;9.102;2023-02-03T04:12:36;5.85;;;1.90;;
27889;SDS011;15238;49.082;9.102;2023-02-03T04:14:37;2.97;;;1.80;;
27889;SDS011;15238;49.082;9.102;2023-02-03T04:16:37;2.08;;;1.42;;
27889;SDS011;15238;49.082;9.102;2023-02-03T04:18:38;2.00;;;1.80;;
27889;SDS011;15238;49.082;9.102;2023-02-03T04:20:38;6.15;;;1.90;;
27889;SDS011;15238;49.082;9.102;2023-02-03T04:22:39;2.88;;;1.75;;
27889;SDS011;15238;49.082;9.102;2023-02-03T04:24:40;5.53;;;2.60;;
27889;SDS011;15238;49.082;9.102;2023-02-03T04:26:41;4.03;;;1.90;;
27889;SDS011;15238;49.082;9.102;2023-02-03T04:28:42;6.70;;;1.40;;
27889;SDS011;15238;49.082;9.102;2023-02-03T04:30:43;5.10;;;1.83;;
27889;SDS011;15238;49.082;9.102;2023-02-03T04:32:44;3.85;;;1.65;;
27889;SDS011;15238;49.082;9.102;2023-02-03T04:34:45;4.55;;;2.10;;
27889;SDS011;15238;49.082;9.102;2023-02-03T04:36:45;2.78;;;1.50;;
27889;SDS011;15238;49.082;9.102;2023-02-03T04:38:47;3.05;;;1.80;;
27889;SDS011;15238;49.082;9.102;2023-02-03T04:40:48;3.10;;;1.63;;
27889;SDS011;15238;49.082;9.102;2023-02-03T04:42:50;2.53;;;1.50;;
27889;SDS011;15238;49.082;9.102;2023-02-03T04:44:50;2.97;;;2.10;;
27889;SDS011;15238;49.082;9.102;2023-02-03T04:46:51;3.17;;;2.10;;
27889;SDS011;15238;49.082;9.102;2023-02-03T04:48:51;1.92;;;1.55;;
27889;SDS011;15238;49.082;9.102;2023-02-03T04:50:52;5.30;;;2.00;;
27889;SDS011;15238;49.082;9.102;2023-02-03T04:52:52;5.22;;;2.13;;
27889;SDS011;15238;49.082;9.102;2023-02-03T04:54:53;1.85;;;1.50;;
27889;SDS011;15238;49.082;9.102;2023-02-03T04:56:54;6.72;;;1.98;;
27889;SDS011;15238;49.082;9.102;2023-02-03T04:58:54;1.90;;;1.45;;
27889;SDS011;15238;49.082;9.102;2023-02-03T05:00:55;2.63;;;1.90;;
27889;SDS011;15238;49.082;9.102;2023-02-03T05:02:55;5.15;;;2.00;;
27889;SDS011;15238;49.082;9.102;2023-02-03T05:04:56;8.73;;;3.50;;
27889;SDS011;15238;49.082;9.102;2023-02-03T05:06:56;9.27;;;4.70;;
27889;SDS011;15238;49.082;9.102;2023-02-03T05:08:57;5.53;;;2.47;;
27889;SDS011;15238;49.082;9.102;2023-02-03T05:10:57;4.85;;;2.80;;
27889;SDS011;15238;49.082;9.102;2023-02-03T05:12:58;9.48;;;5.10;;
27889;SDS011;15238;49.082;9.102;2023-02-03T05:14:58;4.32;;;2.63;;
27889;SDS011;15238;49.082;9.102;2023-02-03T05:16:59;6.40;;;2.70;;
27889;SDS011;15238;49.082;9.102;2023-02-03T05:18:59;3.30;;;1.75;;
27889;SDS011;15238;49.082;9.102;2023-02-03T05:21:00;3.92;;;1.98;;
27889;SDS011;15238;49.082;9.102;2023-02-03T05:23:00;3.58;;;2.15;;
27889;SDS011;15238;49.082;9.102;2023-02-03T05:25:01;7.43;;;2.40;;
27889;SDS011;15238;49.082;9.102;2023-02-03T05:27:03;3.33;;;1.42;;
27889;SDS011;15238;49.082;9.102;2023-02-03T05:29:03;4.05;;;2.10;;
27889;SDS011;15238;49.082;9.102;2023-02-03T05:31:04;3.65;;;2.20;;
27889;SDS011;15238;49.082;9.102;2023-02-03T05:33:04;2.45;;;2.05;;
27889;SDS011;15238;49.082;9.102;2023-02-03T05:35:05;9.25;;;2.40;;
27889;SDS011;15238;49.082;9.102;2023-02-03T05:37:06;5.78;;;2.10;;
27889;SDS011;15238;49.082;9.102;2023-02-03T05:39:06;7.25;;;2.60;;
27889;SDS011;15238;49.082;9.102;2023-02-03T05:41:11;6.00;;;2.63;;
27889;SDS011;15238;49.082;9.102;2023-02-03T05:43:31;6.40;;;2.58;;
27889;SDS011;15238;49.082;9.102;2023-02-03T05:45:32;4.30;;;2.20;;
27889;SDS011;15238;49.082;9.102;2023-02-03T05:47:33;4.30;;;2.22;;
27889;SDS011;15238;49.082;9.102;2023-02-03T05:49:33;5.57;;;2.30;;
27889;SDS011;15238;49.082;9.102;2023-02-03T05:51:34;2.90;;;2.03;;
27889;SDS011;15238;49.082;9.102;2023-02-03T05:53:34;3.05;;;2.45;;
27889;SDS011;15238;49.082;9.102;2023-02-03T05:55:35;3.55;;;2.25;;
27889;SDS011;15238;49.082;9.102;2023-02-03T05:57:36;6.72;;;3.08;;
27889;SDS011;15238;49.082;9.102;2023-02-03T05:59:37;6.47;;;2.88;;
27889;SDS011;15238;49.082;9.102;2023-02-03T06:01:37;8.30;;;2.60;;
27889;SDS011;15238;49.082;9.102;2023-02-03T06:03:38;3.92;;;2.05;;
27889;SDS011;15238;49.082;9.102;2023-02-03T06:05:38;8.73;;;2.63;;
27889;SDS011;15238;49.082;9.102;2023-02-03T06:07:40;5.38;;;2.85;;
27889;SDS011;15238;49.082;9.102;2023-02-03T06:09:40;6.00;;;2.58;;
27889;SDS011;15238;49.082;9.102;2023-02-03T06:11:41;6.82;;;2.83;;
27889;SDS011;15238;49.082;9.102;2023-02-03T06:13:41;5.45;;;2.88;;
27889;SDS011;15238;49.082;9.102;2023-02-03T06:15:42;4.28;;;2.83;;
27889;SDS011;15238;49.082;9.102;2023-02-03T06:17:46;5.10;;;2.58;;
27889;SDS011;15238;49.082;9.102;2023-02-03T06:19:48;9.57;;;2.80;;
27889;SDS011;15238;49.082;9.102;2023-02-03T06:21:48;9.27;;;3.05;;
27889;SDS011;15238;49.082;9.102;2023-02-03T06:23:49;5.03;;;2.33;;
27889;SDS011;15238;49.082;9.102;2023-02-03T06:25:50;3.53;;;2.13;;
27889;SDS011;15238;49.082;9.102;2023-02-03T06:27:51;5.75;;;2.78;;
27889;SDS011;15238;49.082;9.102;2023-02-03T06:29:52;6.63;;;2.80;;
27889;SDS011;15238;49.082;9.102;2023-02-03T06:31:52;4.93;;;2.50;;
27889;SDS011;15238;49.082;9.102;2023-02-03T06:33:53;4.78;;;2.55;;
27889;SDS011;15238;49.082;9.102;2023-02-03T06:35:53;9.65;;;3.30;;
27889;SDS011;15238;49.082;9.102;2023-02-03T06:37:54;5.10;;;2.67;;
27889;SDS011;15238;49.082;9.102;2023-02-03T06:39:54;7.80;;;2.78;;
27889;SDS011;15238;49.082;9.102;2023-02-03T06:41:55;4.28;;;2.55;;
27889;SDS011;15238;49.082;9.102;2023-02-03T06:43:55;4.45;;;2.75;;
27889;SDS011;15238;49.082;9.102;2023-02-03T06:45:56;5.13;;;2.50;;
27889;SDS011;15238;49.082;9.102;2023-02-03T06:47:56;4.85;;;2.50;;
27889;SDS011;15238;49.082;9.102;2023-02-03T06:49:57;3.35;;;2.45;;
27889;SDS011;15238;49.082;9.102;2023-02-03T06:51:57;3.50;;;2.30;;
27889;SDS011;15238;49.082;9.102;2023-02-03T06:53:58;5.95;;;2.50;;
27889;SDS011;15238;49.082;9.102;2023-02-03T06:55:58;4.13;;;2.17;;
27889;SDS011;15238;49.082;9.102;2023-02-03T06:58:01;4.07;;;2.30;;
27889;SDS011;15238;49.082;9.102;2023-02-03T07:00:02;6.32;;;2.08;;
27889;SDS011;15238;49.082;9.102;2023-02-03T07:02:02;4.93;;;2.40;;
27889;SDS011;15238;49.082;9.102;2023-02-03T07:04:03;4.85;;;2.25;;
27889;SDS011;15238;49.082;9.102;2023-02-03T07:06:04;3.53;;;2.22;;
27889;SDS011;15238;49.082;9.102;2023-02-03T07:08:05;7.18;;;2.65;;
27889;SDS011;15238;49.082;9.102;2023-02-03T07:10:06;3.80;;;2.53;;
27889;SDS011;15238;49.082;9.102;2023-02-03T07:12:07;4.90;;;2.33;;
27889;SDS011;15238;49.082;9.102;2023-02-03T07:14:08;5.15;;;2.17;;
27889;SDS011;15238;49.082;9.102;2023-02-03T07:16:09;8.50;;;2.47;;
27889;SDS011;15238;49.082;9.102;2023-02-03T07:18:10;4.93;;;2.38;;
27889;SDS011;15238;49.082;9.102;2023-02-03T07:20:10;6.10;;;2.13;;
27889;SDS011;15238;49.082;9.102;2023-02-03T07:22:11;5.32;;;2.22;;
27889;SDS011;15238;49.082;9.102;2023-02-03T07:24:11;6.88;;;2.85;;
27889;SDS011;15238;49.082;9.102;2023-02-03T07:26:12;6.50;;;2.10;;
27889;SDS011;15238;49.082;9.102;2023-02-03T07:28:13;3.22;;;1.88;;
27889;SDS011;15238;49.082;9.102;2023-02-03T07:30:13;4.28;;;1.98;;
27889;SDS011;15238;49.082;9.102;2023-02-03T07:32:14;2.13;;;1.80;;
27889;SDS011;15238;49.082;9.102;2023-02-03T07:34:15;3.42;;;1.90;;
27889;SDS011;15238;49.082;9.102;2023-02-03T07:36:15;2.22;;;1.70;;
27889;SDS011;15238;49.082;9.102;2023-02-03T07:38:16;4.72;;;2.08;;
27889;SDS011;15238;49.082;9.102;2023-02-03T07:40:16;4.43;;;2.20;;
27889;SDS011;15238;49.082;9.102;2023-02-03T07:42:17;4.47;;;2.25;;
27889;SDS011;15238;49.082;9.102;2023-02-03T07:44:18;4.10;;;1.77;;
27889;SDS011;15238;49.082;9.102;2023-02-03T07:46:18;3.03;;;2.03;;
27889;SDS011;15238;49.082;9.102;2023-02-03T07:48:19;3.45;;;1.90;;
27889;SDS011;15238;49.082;9.102;2023-02-03T07:50:19;6.03;;;1.70;;
27889;SDS011;15238;49.082;9.102;2023-02-03T07:52:20;6.03;;;2.03;;
27889;SDS011;15238;49.082;9.102;2023-02-03T07:54:20;4.78;;;1.85;;
27889;SDS011;15238;49.082;9.102;2023-02-03T07:56:21;4.30;;;1.92;;
27889;SDS011;15238;49.082;9.102;2023-02-03T07:58:21;4.35;;;1.95;;
27889;SDS011;15238;49.082;9.102;2023-02-03T08:00:22;5.90;;;2.47;;
27889;SDS011;15238;49.082;9.102;2023-02-03T08:02:24;3.42;;;1.42;;
27889;SDS011;15238;49.082;9.102;2023-02-03T08:04:24;3.45;;;1.98;;
27889;SDS011;15238;49.082;9.102;2023-02-03T08:06:25;6.05;;;1.92;;
27889;SDS011;15238;49.082;9.102;2023-02-03T08:08:25;5.95;;;2.00;;
27889;SDS011;15238;49.082;9.102;2023-02-03T08:10:26;4.43;;;2.05;;
27889;SDS011;15238;49.082;9.102;2023-02-03T08:12:26;5.25;;;2.10;;
27889;SDS011;15238;49.082;9.102;2023-02-03T08:14:27;4.90;;;2.22;;
27889;SDS011;15238;49.082;9.102;2023-02-03T08:16:27;5.40;;;2.25;;
27889;SDS011;15238;49.082;9.102;2023-02-03T08:18:28;3.33;;;2.05;;
27889;SDS011;15238;49.082;9.102;2023-02-03T08:20:28;3.28;;;2.45;;
27889;SDS011;15238;49.082;9.102;2023-02-03T08:22:29;3.03;;;2.00;;
27889;SDS011;15238;49.082;9.102;2023-02-03T08:24:29;2.53;;;2.20;;
27889;SDS011;15238;49.082;9.102;2023-02-03T08:26:30;6.13;;;3.25;;
27889;SDS011;15238;49.082;9.102;2023-02-03T08:28:30;6.10;;;3.50;;
27889;SDS011;15238;49.082;9.102;2023-02-03T08:30:31;4.80;;;2.85;;
27889;SDS011;15238;49.082;9.102;2023-02-03T08:32:32;5.70;;;3.45;;
27889;SDS011;15238;49.082;9.102;2023-02-03T08:34:33;3.95;;;2.40;;
27889;SDS011;15238;49.082;9.102;2023-02-03T08:36:33;2.40;;;1.30;;
27889;SDS011;15238;49.082;9.102;2023-02-03T08:38:36;4.32;;;1.70;;
27889;SDS011;15238;49.082;9.102;2023-02-03T08:40:37;3.92;;;2.17;;
27889;SDS011;15238;49.082;9.102;2023-02-03T08:42:38;3.55;;;1.80;;
27889;SDS011;15238;49.082;9.102;2023-02-03T08:44:38;3.75;;;1.75;;
27889;SDS011;15238;49.082;9.102;2023-02-03T08:46:39;1.83;;;1.40;;
27889;SDS011;15238;49.082;9.102;2023-02-03T08:48:43;5.72;;;2.10;;
27889;SDS011;15238;49.082;9.102;2023-02-03T08:50:43;5.53;;;2.10;;
27889;SDS011;15238;49.082;9.102;2023-02-03T08:52:50;4.20;;;1.70;;
27889;SDS011;15238;49.082;9.102;2023-02-03T08:54:51;2.65;;;1.70;;
27889;SDS011;15238;49.082;9.102;2023-02-03T08:56:52;6.85;;;2.08;;
27889;SDS011;15238;49.082;9.102;2023-02-03T08:58:52;2.30;;;1.70;;
27889;SDS011;15238;49.082;9.102;2023-02-03T09:00:53;5.28;;;1.85;;
27889;SDS011;15238;49.082;9.102;2023-02-03T09:02:54;4.80;;;2.35;;
27889;SDS011;15238;49.082;9.102;2023-02-03T09:04:54;8.35;;;2.53;;
27889;SDS011;15238;49.082;9.102;2023-02-03T09:06:55;5.55;;;2.10;;
27889;SDS011;15238;49.082;9.102;2023-02-03T09:08:56;5.45;;;2.22;;
27889;SDS011;15238;49.082;9.102;2023-02-03T09:10:56;3.63;;;2.10;;
27889;SDS011;15238;49.082;9.102;2023-02-03T09:12:57;3.85;;;2.10;;
27889;SDS011;15238;49.082;9.102;2023-02-03T09:14:57;3.88;;;1.92;;
27889;SDS011;15238;49.082;9.102;2023-02-03T09:16:58;3.53;;;1.75;;
27889;SDS011;15238;49.082;9.102;2023-02-03T09:19:00;3.55;;;1.95;;
27889;SDS011;15238;49.082;9.102;2023-02-03T09:21:01;3.75;;;2.10;;
27889;SDS011;15238;49.082;9.102;2023-02-03T09:23:03;2.80;;;1.80;;
27889;SDS011;15238;49.082;9.102;2023-02-03T09:25:04;3.60;;;2.05;;
27889;SDS011;15238;49.082;9.102;2023-02-03T09:27:06;3.03;;;1.98;;
27889;SDS011;15238;49.082;9.102;2023-02-03T09:29:06;3.78;;;1.77;;
27889;SDS011;15238;49.082;9.102;2023-02-03T09:31:07;8.73;;;2.10;;
27889;SDS011;15238;49.082;9.102;2023-02-03T09:33:10;8.05;;;2.03;;
27889;SDS011;15238;49.082;9.102;2023-02-03T09:35:10;2.97;;;1.70;;
27889;SDS011;15238;49.082;9.102;2023-02-03T09:37:11;2.67;;;1.83;;
27889;SDS011;15238;49.082;9.102;2023-02-03T09:39:11;4.35;;;1.58;;
27889;SDS011;15238;49.082;9.102;2023-02-03T09:45:34;4.50;;;2.03;;
27889;SDS011;15238;49.082;9.102;2023-02-03T09:47:35;2.55;;;1.90;;
27889;SDS011;15238;49.082;9.102;2023-02-03T09:49:41;5.20;;;1.90;;
27889;SDS011;15238;49.082;9.102;2023-02-03T09:51:48;3.53;;;1.70;;
27889;SDS011;15238;49.082;9.102;2023-02-03T09:54:15;3.15;;;1.58;;
27889;SDS011;15238;49.082;9.102;2023-02-03T09:56:37;2.33;;;1.50;;
27889;SDS011;15238;49.082;9.102;2023-02-03T09:58:39;2.33;;;1.60;;
27889;SDS011;15238;49.082;9.102;2023-02-03T10:00:41;2.08;;;1.65;;
27889;SDS011;15238;49.082;9.102;2023-02-03T10:05:21;4.00;;;1.80;;
27889;SDS011;15238;49.082;9.102;2023-02-03T10:10:17;4.13;;;1.90;;
27889;SDS011;15238;49.082;9.102;2023-02-03T10:19:46;6.57;;;2.15;;
27889;SDS011;15238;49.082;9.102;2023-02-03T10:21:56;6.55;;;2.20;;
27889;SDS011;15238;49.082;9.102;2023-02-03T10:23:59;3.90;;;1.83;;
27889;SDS011;15238;49.082;9.102;2023-02-03T10:26:01;2.45;;;1.77;;
27889;SDS011;15238;49.082;9.102;2023-02-03T10:28:16;3.92;;;1.73;;
27889;SDS011;15238;49.082;9.102;2023-02-03T10:30:23;9.90;;;1.70;;
27889;SDS011;15238;49.082;9.102;2023-02-03T10:32:25;4.45;;;1.67;;
27889;SDS011;15238;49.082;9.102;2023-02-03T10:34:26;4.75;;;1.55;;
27889;SDS011;15238;49.082;9.102;2023-02-03T10:36:32;5.70;;;1.80;;
27889;SDS011;15238;49.082;9.102;2023-02-03T10:38:46;2.25;;;1.27;;
27889;SDS011;15238;49.082;9.102;2023-02-03T10:40:58;3.13;;;1.60;;
27889;SDS011;15238;49.082;9.102;2023-02-03T10:42:58;2.72;;;1.50;;
27889;SDS011;15238;49.082;9.102;2023-02-03T10:45:18;2.63;;;1.40;;
27889;SDS011;15238;49.082;9.102;2023-02-03T10:47:22;3.20;;;1.70;;
27889;SDS011;15238;49.082;9.102;2023-02-03T10:49:35;4.00;;;1.88;;
27889;SDS011;15238;49.082;9.102;2023-02-03T10:51:40;3.10;;;1.55;;
27889;SDS011;15238;49.082;9.102;2023-02-03T10:53:48;4.78;;;1.73;;
27889;SDS011;15238;49.082;9.102;2023-02-03T10:56:01;1.70;;;1.27;;
27889;SDS011;15238;49.082;9.102;2023-02-03T10:58:12;3.60;;;1.30;;
27889;SDS011;15238;49.082;9.102;2023-02-03T11:02:29;2.47;;;1.30;;
27889;SDS011;15238;49.082;9.102;2023-02-03T11:04:30;4.65;;;1.42;;
27889;SDS011;15238;49.082;9.102;2023-02-03T11:06:33;4.40;;;1.23;;
27889;SDS011;15238;49.082;9.102;2023-02-03T11:08:36;5.38;;;0.98;;
27889;SDS011;15238;49.082;9.102;2023-02-03T11:10:39;3.00;;;1.17;;
27889;SDS011;15238;49.082;9.102;2023-02-03T11:12:39;3.60;;;1.23;;
27889;SDS011;15238;49.082;9.102;2023-02-03T11:14:44;1.40;;;1.23;;
27889;SDS011;15238;49.082;9.102;2023-02-03T11:16:46;6.10;;;1.25;;
27889;SDS011;15238;49.082;9.102;2023-02-03T11:20:52;2.70;;;1.48;;
27889;SDS011;15238;49.082;9.102;2023-02-03T11:22:53;2.95;;;1.20;;
27889;SDS011;15238;49.082;9.102;2023-02-03T11:24:54;3.50;;;2.08;;
27889;SDS011;15238;49.082;9.102;2023-02-03T11:26:58;2.58;;;1.02;;
27889;SDS011;15238;49.082;9.102;2023-02-03T11:29:03;1.58;;;0.95;;
27889;SDS011;15238;49.082;9.102;2023-02-03T11:31:13;2.38;;;0.88;;
27889;SDS011;15238;49.082;9.102;2023-02-03T11:33:19;1.75;;;1.10;;
27889;SDS011;15238;49.082;9.102;2023-02-03T11:35:23;10.02;;;2.25;;
27889;SDS011;15238;49.082;9.102;2023-02-03T11:37:33;2.05;;;1.17;;
27889;SDS011;15238;49.082;9.102;2023-02-03T11:39:36;3.15;;;1.17;;
27889;SDS011;15238;49.082;9.102;2023-02-03T11:41:38;1.27;;;0.95;;
27889;SDS011;15238;49.082;9.102;2023-02-03T11:43:39;2.25;;;1.40;;
27889;SDS011;15238;49.082;9.102;2023-02-03T11:45:40;3.85;;;1.80;;
27889;SDS011;15238;49.082;9.102;2023-02-03T11:47:45;2.42;;;1.42;;
27889;SDS011;15238;49.082;9.102;2023-02-03T11:50:02;1.57;;;1.10;;
27889;SDS011;15238;49.082;9.102;2023-02-03T11:57:03;3.33;;;1.30;;
27889;SDS011;15238;49.082;9.102;2023-02-03T12:05:57;1.30;;;0.80;;
27889;SDS011;15238;49.082;9.102;2023-02-03T12:08:18;5.13;;;1.67;;
27889;SDS011;15238;49.082;9.102;2023-02-03T12:10:31;2.88;;;1.00;;
27889;SDS011;15238;49.082;9.102;2023-02-03T12:20:04;2.08;;;1.50;;
27889;SDS011;15238;49.082;9.102;2023-02-03T12:25:02;2.40;;;1.20;;
27889;SDS011;15238;49.082;9.102;2023-02-03T12:27:41;1.83;;;1.10;;
27889;SDS011;15238;49.082;9.102;2023-02-03T12:30:02;2.08;;;1.13;;
27889;SDS011;15238;49.082;9.102;2023-02-03T12:34:30;4.88;;;2.22;;
27889;SDS011;15238;49.082;9.102;2023-02-03T12:36:37;3.35;;;1.60;;
27889;SDS011;15238;49.082;9.102;2023-02-03T12:38:44;2.97;;;1.65;;
27889;SDS011;15238;49.082;9.102;2023-02-03T12:40:58;2.13;;;1.38;;
27889;SDS011;15238;49.082;9.102;2023-02-03T12:43:11;4.78;;;1.20;;
27889;SDS011;15238;49.082;9.102;2023-02-03T12:45:38;2.08;;;1.48;;
27889;SDS011;15238;49.082;9.102;2023-02-03T12:49:47;2.10;;;1.15;;
27889;SDS011;15238;49.082;9.102;2023-02-03T12:51:54;2.30;;;1.00;;
27889;SDS011;15238;49.082;9.102;2023-02-03T12:54:07;1.98;;;1.20;;
27889;SDS011;15238;49.082;9.102;2023-02-03T12:56:32;2.15;;;1.50;;
27889;SDS011;15238;49.082;9.102;2023-02-03T12:58:43;2.83;;;1.40;;
27889;SDS011;15238;49.082;9.102;2023-02-03T13:00:50;2.75;;;1.58;;
27889;SDS011;15238;49.082;9.102;2023-02-03T13:05:27;3.08;;;1.40;;
27889;SDS011;15238;49.082;9.102;2023-02-03T13:07:42;2.88;;;1.13;;
27889;SDS011;15238;49.082;9.102;2023-02-03T13:14:30;4.22;;;2.17;;
27889;SDS011;15238;49.082;9.102;2023-02-03T13:16:42;2.83;;;1.67;;
27889;SDS011;15238;49.082;9.102;2023-02-03T13:18:45;6.80;;;1.60;;
27889;SDS011;15238;49.082;9.102;2023-02-03T13:20:52;6.03;;;2.92;;
27889;SDS011;15238;49.082;9.102;2023-02-03T13:22:53;3.83;;;2.05;;
27889;SDS011;15238;49.082;9.102;2023-02-03T13:24:59;3.28;;;1.00;;
27889;SDS011;15238;49.082;9.102;2023-02-03T13:31:48;2.13;;;0.93;;
27889;SDS011;15238;49.082;9.102;2023-02-03T13:39:17;1.67;;;0.90;;
27889;SDS011;15238;49.082;9.102;2023-02-03T13:43:46;2.55;;;0.80;;
27889;SDS011;15238;49.082;9.102;2023-02-03T13:45:50;1.70;;;0.90;;